Republic, Washington
Current Conditions -  °F | °C
As of 1:53 PM on Thursday 18 Dec 2014 (Local Time) from KOMK Reporting Station
Haze Haze  
Wind Chill:   Ceiling: 2000
Heat Index:   Visibility: 6mi
Dew Point:   Wind: 6mph
Humidity: 97%   Direction: 230°SW
Pressure: 29.97"   Gusts: NA
Location:  48.65°N, 118.74°W
Report Text: KOMK 182153Z AUTO 23005KT 6SM BR OVC020 02/02 A2997 RMK AO2 SLP162 T00220017
Loading
Personal Weather Stations






























Interactive Weather Map New forecast layout! Learn more

10-Day Weather Forecast

Advertisements
Track Severe Weather on mobile